createdAt,value
2022-12-03T00:00:12.094Z,101108.88
2022-12-03T00:02:40.652Z,101125.31
2022-12-03T00:05:08.739Z,101117.44
2022-12-03T00:07:37.556Z,101123.56
2022-12-03T00:10:06.005Z,101119.16
2022-12-03T00:12:33.440Z,101120.09
2022-12-03T00:15:00.879Z,101106.88
2022-12-03T00:17:28.421Z,101120.09
2022-12-03T00:19:55.900Z,101118.34
2022-12-03T00:22:23.322Z,101117.50
2022-12-03T00:24:52.350Z,101117.50
2022-12-03T00:27:20.015Z,101122.84
2022-12-03T00:29:47.469Z,101119.25
2022-12-03T00:32:14.960Z,101120.97
2022-12-03T00:34:42.418Z,101115.69
2022-12-03T00:37:09.850Z,101128.91
2022-12-03T00:39:37.301Z,101118.38
2022-12-03T00:42:06.575Z,101123.69
2022-12-03T00:44:34.003Z,101120.19
2022-12-03T00:47:01.522Z,101101.88
2022-12-03T00:49:29.014Z,101114.06
2022-12-03T00:51:56.448Z,101107.13
2022-12-03T00:54:30.102Z,101119.41
2022-12-03T00:56:59.271Z,101100.34
2022-12-03T00:59:28.042Z,101119.47
2022-12-03T01:01:55.557Z,101110.81
2022-12-03T01:04:23.078Z,101116.88
2022-12-03T01:06:50.608Z,101110.72
2022-12-03T01:09:18.123Z,101117.75
2022-12-03T01:11:45.622Z,101119.53
2022-12-03T01:14:14.026Z,101033.03
2022-12-03T01:16:43.033Z,101121.28
2022-12-03T01:19:10.972Z,101112.50
2022-12-03T01:21:38.464Z,101115.19
2022-12-03T01:24:06.628Z,101117.84
2022-12-03T01:26:34.089Z,101118.75
2022-12-03T01:29:01.557Z,101121.38
2022-12-03T01:31:46.618Z,101118.75
2022-12-03T01:34:15.458Z,101128.47
2022-12-03T01:36:42.935Z,101131.97
2022-12-03T01:39:10.373Z,101131.13
2022-12-03T01:41:37.843Z,101030.91
2022-12-03T01:44:05.618Z,101129.31
2022-12-03T01:46:35.619Z,101123.19
2022-12-03T01:49:03.169Z,101128.53
2022-12-03T01:51:31.918Z,101126.72
2022-12-03T01:53:59.481Z,101133.81
2022-12-03T01:56:26.921Z,101131.16
2022-12-03T01:58:54.392Z,101133.84
2022-12-03T02:01:21.937Z,101132.00
2022-12-03T02:03:49.562Z,101135.56
2022-12-03T02:06:17.982Z,101048.16
2022-12-03T02:08:47.394Z,101050.84
2022-12-03T02:11:18.760Z,101134.66
2022-12-03T02:13:46.208Z,101133.81
2022-12-03T02:16:13.755Z,101134.69
2022-12-03T02:18:41.294Z,101132.97
2022-12-03T02:21:13.088Z,101132.06
2022-12-03T02:23:43.119Z,101133.03
2022-12-03T02:26:11.888Z,101136.59
2022-12-03T02:28:39.417Z,101129.56
2022-12-03T02:31:06.978Z,101135.78
2022-12-03T02:33:34.437Z,101134.00
2022-12-03T02:36:03.932Z,101129.63
2022-12-03T02:38:31.737Z,101132.25
2022-12-03T02:41:00.805Z,101127.84
2022-12-03T02:43:28.660Z,101123.44
2022-12-03T02:45:56.745Z,101118.25
2022-12-03T02:48:25.826Z,101133.13
2022-12-03T02:50:54.628Z,101126.91
2022-12-03T02:53:25.837Z,101126.97
2022-12-03T02:55:53.336Z,101130.50
2022-12-03T02:58:20.814Z,101132.25
2022-12-03T03:00:50.277Z,101122.59
2022-12-03T03:03:17.826Z,101132.31
2022-12-03T03:05:45.282Z,101127.91
2022-12-03T03:08:12.863Z,101125.25
2022-12-03T03:10:40.948Z,101127.91
2022-12-03T03:13:09.839Z,101127.91
2022-12-03T03:15:37.344Z,101133.19
2022-12-03T03:18:06.211Z,101127.91
2022-12-03T03:20:33.660Z,101053.47
2022-12-03T03:23:06.081Z,101122.59
2022-12-03T03:25:33.518Z,101058.78
2022-12-03T03:28:00.956Z,101119.97
2022-12-03T03:30:28.410Z,101117.38
2022-12-03T03:32:55.856Z,101123.53
2022-12-03T03:35:24.637Z,101115.66
2022-12-03T03:37:52.112Z,101115.59
2022-12-03T03:40:19.569Z,101118.25
2022-12-03T03:42:47.036Z,101118.25
2022-12-03T03:45:14.525Z,101113.81
2022-12-03T03:47:41.988Z,101106.75
2022-12-03T03:50:10.114Z,101082.41
2022-12-03T03:52:38.899Z,101104.06
2022-12-03T03:55:06.900Z,101100.53
2022-12-03T03:57:34.346Z,101091.78
2022-12-03T04:00:01.827Z,101019.25
2022-12-03T04:02:29.268Z,101014.06
2022-12-03T04:04:56.726Z,101083.91
2022-12-03T04:07:24.332Z,101013.19
2022-12-03T04:09:53.194Z,101095.34
2022-12-03T04:12:38.171Z,101084.78
2022-12-03T04:15:06.816Z,101085.66
2022-12-03T04:17:34.267Z,101085.66
2022-12-03T04:20:01.725Z,101083.91
2022-12-03T04:22:40.201Z,101086.53
2022-12-03T04:25:27.371Z,101012.16
2022-12-03T04:28:12.740Z,101080.38
2022-12-03T04:30:40.262Z,101084.78
2022-12-03T04:33:25.607Z,101084.78
2022-12-03T04:35:53.442Z,101015.69
2022-12-03T04:38:20.969Z,101082.19
2022-12-03T04:41:01.737Z,101081.34
2022-12-03T04:43:29.319Z,101083.06
2022-12-03T04:45:56.853Z,101079.50
2022-12-03T04:48:24.436Z,101073.31
2022-12-03T04:50:51.946Z,101076.81
2022-12-03T04:53:19.453Z,100989.53
2022-12-03T04:55:46.912Z,101077.72
2022-12-03T04:58:30.706Z,101070.69
2022-12-03T05:00:58.235Z,101092.72
2022-12-03T05:03:25.742Z,101075.13
2022-12-03T05:05:53.192Z,101070.72
2022-12-03T05:08:20.627Z,101075.09
2022-12-03T05:10:48.064Z,101067.22
2022-12-03T05:13:15.493Z,101074.22
2022-12-03T05:15:44.273Z,101071.56
2022-12-03T05:18:11.715Z,101067.22
2022-12-03T05:20:42.272Z,101062.81
2022-12-03T05:23:09.786Z,101060.09
2022-12-03T05:25:37.323Z,101064.53
2022-12-03T05:28:05.028Z,101060.09
2022-12-03T05:30:32.620Z,100988.44
2022-12-03T05:33:01.534Z,101058.38
2022-12-03T05:35:28.994Z,101053.13
2022-12-03T05:37:56.448Z,101061.06
2022-12-03T05:40:23.905Z,101059.34
2022-12-03T05:42:56.998Z,101067.25
2022-12-03T05:45:24.916Z,100989.47
2022-12-03T05:47:52.447Z,100986.00
2022-12-03T05:50:21.345Z,100984.50
2022-12-03T05:52:48.787Z,101062.91
2022-12-03T05:55:16.315Z,101000.75
2022-12-03T05:57:44.124Z,101069.03
2022-12-03T06:00:14.292Z,101065.56
2022-12-03T06:02:41.663Z,101063.84
2022-12-03T06:05:09.521Z,101062.13
2022-12-03T06:07:38.344Z,101067.38
2022-12-03T06:10:06.755Z,101011.38
2022-12-03T06:12:34.208Z,101067.41
2022-12-03T06:15:01.639Z,101065.66
2022-12-03T06:17:29.119Z,100998.31
2022-12-03T06:19:56.570Z,101062.13
2022-12-03T06:22:24.015Z,101066.50
2022-12-03T06:24:53.101Z,101067.41
2022-12-03T06:27:20.925Z,101066.53
2022-12-03T06:29:48.399Z,101067.38
2022-12-03T06:32:15.910Z,101001.84
2022-12-03T06:34:43.348Z,101065.66
2022-12-03T06:37:10.869Z,101064.00
2022-12-03T06:39:38.359Z,101069.22
2022-12-03T06:42:07.246Z,101066.59
2022-12-03T06:44:34.688Z,101067.47
2022-12-03T06:47:02.239Z,101067.47
2022-12-03T06:49:29.685Z,101071.81
2022-12-03T06:51:57.150Z,101070.06
2022-12-03T06:54:24.600Z,101070.97
2022-12-03T06:56:52.044Z,101061.25
2022-12-03T06:59:20.817Z,101069.22
2022-12-03T07:01:48.328Z,101062.22
2022-12-03T07:04:15.835Z,101067.50
2022-12-03T07:06:43.657Z,101063.16
2022-12-03T07:09:11.155Z,101064.94
2022-12-03T07:11:40.883Z,101060.53
2022-12-03T07:14:08.742Z,101053.63
2022-12-03T07:16:37.708Z,101059.63
2022-12-03T07:19:05.391Z,101060.56
2022-12-03T07:21:32.969Z,101056.13
2022-12-03T07:24:00.406Z,101058.75
2022-12-03T07:26:27.839Z,101064.06
2022-12-03T07:28:55.309Z,101058.75
2022-12-03T07:31:22.843Z,101057.16
2022-12-03T07:33:51.657Z,101066.69
2022-12-03T07:36:19.112Z,101057.97
2022-12-03T07:38:46.561Z,101069.38
2022-12-03T07:41:14.039Z,100981.31
2022-12-03T07:43:41.480Z,101059.78
2022-12-03T07:46:09.358Z,101059.78
2022-12-03T07:48:36.855Z,101061.56
2022-12-03T07:51:05.807Z,101050.16
2022-12-03T07:53:33.265Z,101061.56
2022-12-03T07:56:00.731Z,101050.09
2022-12-03T07:58:28.170Z,101045.03
2022-12-03T08:00:55.696Z,101056.22
2022-12-03T08:03:23.148Z,101047.47
2022-12-03T08:05:50.673Z,101052.78
2022-12-03T08:08:19.515Z,101058.03
2022-12-03T08:10:46.993Z,101050.16
2022-12-03T08:13:15.366Z,101051.91
2022-12-03T08:15:43.146Z,101000.13
2022-12-03T08:18:13.917Z,101044.88
2022-12-03T08:20:42.100Z,101048.41
2022-12-03T08:23:13.370Z,101049.22
2022-12-03T08:25:42.383Z,101049.22
2022-12-03T08:28:13.337Z,101029.22
2022-12-03T08:30:40.908Z,101040.38
2022-12-03T08:33:17.352Z,101044.81
2022-12-03T08:35:46.462Z,101039.59
2022-12-03T08:38:13.903Z,101034.44
2022-12-03T08:40:43.491Z,101025.59
2022-12-03T08:43:14.673Z,100929.03
2022-12-03T08:45:42.626Z,100978.09
2022-12-03T08:48:33.703Z,101038.66
2022-12-03T08:51:02.878Z,101027.22
2022-12-03T08:53:32.530Z,101009.19
2022-12-03T08:56:02.543Z,101028.03
2022-12-03T08:58:39.485Z,100963.47
2022-12-03T09:01:17.256Z,101032.44
2022-12-03T09:03:48.518Z,100974.75
2022-12-03T09:06:15.985Z,101033.31
2022-12-03T09:08:43.421Z,101032.44
2022-12-03T09:11:12.206Z,101037.72
2022-12-03T09:13:39.667Z,101027.16
2022-12-03T09:16:07.735Z,101041.28
2022-12-03T09:18:35.241Z,101041.28
2022-12-03T09:21:02.732Z,101044.81
2022-12-03T09:23:30.224Z,101039.53
2022-12-03T09:25:57.696Z,101037.72
2022-12-03T09:28:26.464Z,101033.31
2022-12-03T09:30:53.948Z,101036.88
2022-12-03T09:33:21.376Z,101038.56
2022-12-03T09:35:48.828Z,101035.19
2022-12-03T09:38:16.282Z,101035.09
2022-12-03T09:40:43.751Z,100967.81
2022-12-03T09:43:11.794Z,101041.28
2022-12-03T09:45:40.576Z,100969.53
2022-12-03T09:48:08.052Z,101034.25
2022-12-03T09:50:35.471Z,101036.88
2022-12-03T09:53:03.476Z,100955.50
2022-12-03T09:55:31.062Z,101030.69
2022-12-03T09:57:58.748Z,101021.88
2022-12-03T10:00:27.115Z,101020.13
2022-12-03T10:02:57.305Z,101022.69
2022-12-03T10:05:24.570Z,101016.66
2022-12-03T10:07:52.564Z,101014.88
2022-12-03T10:10:21.711Z,101014.00
2022-12-03T10:12:49.495Z,101015.75
2022-12-03T10:15:18.117Z,101003.44
2022-12-03T10:17:46.006Z,100999.91
2022-12-03T10:20:16.022Z,100960.38
2022-12-03T10:22:43.516Z,100995.47
2022-12-03T10:25:12.605Z,100939.41
2022-12-03T10:27:40.129Z,100988.47
2022-12-03T10:30:16.387Z,100972.72
2022-12-03T10:32:45.208Z,100988.47
2022-12-03T10:35:15.007Z,100985.81
2022-12-03T10:37:59.149Z,100955.72
2022-12-03T10:40:27.320Z,100984.94
2022-12-03T10:42:56.446Z,100981.47
2022-12-03T10:45:24.151Z,100972.59
2022-12-03T10:48:05.627Z,100977.84
2022-12-03T10:50:34.585Z,100925.06
2022-12-03T10:53:02.147Z,100974.31
2022-12-03T10:55:30.112Z,100971.72
2022-12-03T10:57:57.704Z,100967.31
2022-12-03T11:00:25.288Z,100966.44
2022-12-03T11:02:56.684Z,100970.00
2022-12-03T11:05:27.605Z,100906.06
2022-12-03T11:07:56.665Z,100970.06
2022-12-03T11:10:24.390Z,100960.38
2022-12-03T11:13:29.781Z,100956.81
2022-12-03T11:15:57.511Z,100950.66
2022-12-03T11:18:59.938Z,100941.81
2022-12-03T11:21:27.405Z,100938.31
2022-12-03T11:24:16.592Z,100935.63
2022-12-03T11:27:18.808Z,100938.31
2022-12-03T11:29:56.760Z,100930.44
2022-12-03T11:33:09.636Z,100922.47
2022-12-03T11:36:06.858Z,100927.81
2022-12-03T11:38:55.955Z,100919.88
2022-12-03T11:41:27.195Z,100919.00
2022-12-03T11:44:31.530Z,100920.75
2022-12-03T11:47:00.215Z,100799.75
2022-12-03T11:49:51.976Z,100915.47
2022-12-03T11:52:25.445Z,100862.88
2022-12-03T11:54:54.750Z,100914.69
2022-12-03T11:57:32.611Z,100912.06
2022-12-03T12:00:01.806Z,100911.19
2022-12-03T12:02:29.299Z,100904.13
2022-12-03T12:04:56.791Z,100909.41
2022-12-03T12:07:36.575Z,100907.59
2022-12-03T12:10:04.806Z,100912.06
2022-12-03T12:12:38.245Z,100908.53
2022-12-03T12:15:42.254Z,100902.41
2022-12-03T12:18:35.272Z,100901.53
2022-12-03T12:21:41.026Z,100898.03
2022-12-03T12:24:35.855Z,100891.03
2022-12-03T12:27:04.550Z,100894.59
2022-12-03T12:29:33.359Z,100886.69
2022-12-03T12:32:03.294Z,100793.53
2022-12-03T12:34:30.826Z,100874.31
2022-12-03T12:36:58.529Z,100876.09
2022-12-03T12:39:26.410Z,100802.75
2022-12-03T12:41:53.882Z,100876.91
2022-12-03T12:44:23.291Z,100874.25
2022-12-03T12:46:52.824Z,100877.81
2022-12-03T12:49:26.542Z,100877.81
2022-12-03T12:51:54.573Z,100880.47
2022-12-03T12:54:22.035Z,100879.59
2022-12-03T12:56:49.889Z,100880.47
2022-12-03T12:59:18.070Z,100877.00
2022-12-03T13:01:46.018Z,100873.53
2022-12-03T13:04:15.658Z,100803.66
2022-12-03T13:06:43.241Z,100816.44
2022-12-03T13:09:14.083Z,100870.81
2022-12-03T13:11:45.371Z,100878.69
2022-12-03T13:14:15.955Z,100869.91
2022-12-03T13:16:43.491Z,100861.09
2022-12-03T13:19:21.524Z,100863.69
2022-12-03T13:21:49.081Z,100858.41
2022-12-03T13:24:27.997Z,100780.69
2022-12-03T13:26:55.447Z,100854.06
2022-12-03T13:29:23.500Z,100853.19
2022-12-03T13:31:52.608Z,100844.41
2022-12-03T13:34:22.634Z,100846.13
2022-12-03T13:36:57.189Z,100758.19
2022-12-03T13:39:28.589Z,100852.28
2022-12-03T13:42:13.585Z,100853.13
2022-12-03T13:44:43.677Z,100803.19
2022-12-03T13:47:13.492Z,100849.63
2022-12-03T13:49:42.383Z,100864.63
2022-12-03T13:52:13.739Z,100851.41
2022-12-03T13:54:41.348Z,100793.47
2022-12-03T13:57:08.761Z,100837.31
2022-12-03T13:59:36.207Z,100832.16
2022-12-03T14:02:03.683Z,100832.09
2022-12-03T14:04:31.235Z,100833.84
2022-12-03T14:07:00.018Z,100832.91
2022-12-03T14:09:27.460Z,100831.22
2022-12-03T14:12:12.775Z,100825.00
2022-12-03T14:14:40.241Z,100830.28
2022-12-03T14:17:09.447Z,100829.34
2022-12-03T14:19:36.997Z,100834.63
2022-12-03T14:22:07.755Z,100837.28
2022-12-03T14:24:35.213Z,100835.56
2022-12-03T14:27:02.672Z,100754.41
2022-12-03T14:29:30.120Z,100824.13
2022-12-03T14:31:57.638Z,100825.91
2022-12-03T14:34:25.116Z,100823.28
2022-12-03T14:36:52.563Z,100825.03
2022-12-03T14:39:21.343Z,100825.03
2022-12-03T14:42:06.662Z,100829.47
2022-12-03T14:44:34.103Z,100822.41
2022-12-03T14:47:01.525Z,100826.75
2022-12-03T14:49:28.947Z,100825.00
2022-12-03T14:51:56.379Z,100824.13
2022-12-03T14:54:25.144Z,100832.00
2022-12-03T14:56:52.580Z,100807.75
2022-12-03T14:59:25.858Z,100830.28
2022-12-03T15:01:55.193Z,100828.56
2022-12-03T15:04:22.863Z,100822.41
2022-12-03T15:06:50.288Z,100816.38
2022-12-03T15:09:17.731Z,100820.69
2022-12-03T15:11:46.828Z,100827.69
2022-12-03T15:14:14.322Z,100826.81
2022-12-03T15:16:41.864Z,100830.44
2022-12-03T15:19:09.372Z,100832.03
2022-12-03T15:21:36.799Z,100838.25
2022-12-03T15:24:04.371Z,100757.97
2022-12-03T15:26:31.811Z,100829.47
2022-12-03T15:29:00.623Z,100829.41
2022-12-03T15:31:28.092Z,100837.38
2022-12-03T15:33:55.714Z,100829.47
2022-12-03T15:36:23.140Z,100832.09
2022-12-03T15:38:50.584Z,100832.97
2022-12-03T15:41:24.364Z,100826.81
2022-12-03T15:43:52.381Z,100820.75
2022-12-03T15:46:21.372Z,100822.41
2022-12-03T15:48:48.875Z,100814.53
2022-12-03T15:51:16.310Z,100816.31
2022-12-03T15:53:43.749Z,100827.69
2022-12-03T15:56:11.839Z,100828.63
2022-12-03T15:58:39.549Z,100755.19
2022-12-03T16:01:07.198Z,100824.22
2022-12-03T16:03:36.050Z,100755.22
2022-12-03T16:06:03.480Z,100820.69
2022-12-03T16:08:30.920Z,100814.53
2022-12-03T16:10:58.355Z,100813.66
2022-12-03T16:13:25.792Z,100815.47
2022-12-03T16:15:53.305Z,100804.91
2022-12-03T16:18:20.799Z,100805.75
2022-12-03T16:20:49.738Z,100805.69
2022-12-03T16:23:17.173Z,100806.63
2022-12-03T16:25:44.671Z,100812.81
2022-12-03T16:28:12.125Z,100813.66
2022-12-03T16:30:39.662Z,100821.53
2022-12-03T16:33:07.150Z,100818.09
2022-12-03T16:35:34.587Z,100818.09
2022-12-03T16:38:03.363Z,100812.94
2022-12-03T16:40:30.777Z,100815.47
2022-12-03T16:42:58.201Z,100811.06
2022-12-03T16:45:51.255Z,100814.66
2022-12-03T16:48:19.281Z,100821.66
2022-12-03T16:50:46.740Z,100819.06
2022-12-03T16:53:15.540Z,100822.53
2022-12-03T16:55:42.988Z,100818.09
2022-12-03T16:58:10.427Z,100817.22
2022-12-03T17:00:37.868Z,100816.38
2022-12-03T17:03:05.355Z,100805.91
2022-12-03T17:05:33.444Z,100812.00
2022-12-03T17:08:00.970Z,100813.78
2022-12-03T17:10:29.866Z,100812.00
2022-12-03T17:13:12.731Z,100809.41
2022-12-03T17:15:40.307Z,100773.38
2022-12-03T17:18:07.974Z,100808.56
2022-12-03T17:20:35.547Z,100807.66
2022-12-03T17:23:02.988Z,100806.78
2022-12-03T17:25:31.785Z,100807.66
2022-12-03T17:27:59.223Z,100805.84
2022-12-03T17:30:26.651Z,100808.50
2022-12-03T17:32:54.071Z,100807.66
2022-12-03T17:35:21.529Z,100807.66
2022-12-03T17:37:48.964Z,100808.56
2022-12-03T17:40:17.114Z,100798.81
2022-12-03T17:42:45.888Z,100803.25
2022-12-03T17:45:13.633Z,100805.91
2022-12-03T17:47:41.095Z,100793.63
2022-12-03T17:50:09.519Z,100791.97
2022-12-03T17:52:36.949Z,100802.38
2022-12-03T17:55:17.693Z,100785.81
2022-12-03T17:57:50.239Z,100797.09
2022-12-03T18:00:18.036Z,100800.56
2022-12-03T18:02:45.475Z,100800.56
2022-12-03T18:05:13.974Z,100791.81
2022-12-03T18:07:41.510Z,100796.22
2022-12-03T18:10:09.312Z,100790.06
2022-12-03T18:12:36.773Z,100791.88
2022-12-03T18:15:06.301Z,100801.56
2022-12-03T18:17:33.777Z,100787.53
2022-12-03T18:20:01.225Z,100804.19
2022-12-03T18:22:28.699Z,100792.75
2022-12-03T18:24:56.442Z,100797.19
2022-12-03T18:27:23.941Z,100793.63
2022-12-03T18:29:51.630Z,100793.63
2022-12-03T18:32:28.878Z,100783.94
2022-12-03T18:34:57.011Z,100777.78
2022-12-03T18:37:24.640Z,100780.44
2022-12-03T18:39:52.293Z,100776.00
2022-12-03T18:42:20.611Z,100783.06
2022-12-03T18:44:50.029Z,100776.06
2022-12-03T18:47:19.926Z,100780.47
2022-12-03T18:49:47.418Z,100781.41
2022-12-03T18:52:15.109Z,100784.06
2022-12-03T18:54:42.569Z,100775.19
2022-12-03T18:57:10.125Z,100744.19
2022-12-03T18:59:37.584Z,100771.69
2022-12-03T19:02:05.167Z,100772.63
2022-12-03T19:04:34.004Z,100772.63
2022-12-03T19:07:03.235Z,100774.31
2022-12-03T19:09:30.735Z,100763.81
2022-12-03T19:11:58.243Z,100767.34
2022-12-03T19:14:25.709Z,100766.41
2022-12-03T19:16:53.274Z,100762.97
2022-12-03T19:19:20.793Z,100768.25
2022-12-03T19:21:49.543Z,100765.63
2022-12-03T19:24:24.225Z,100763.88
2022-12-03T19:26:55.137Z,100757.75
2022-12-03T19:29:22.733Z,100761.28
2022-12-03T19:31:50.822Z,100765.78
2022-12-03T19:34:18.339Z,100763.03
2022-12-03T19:36:45.857Z,100766.56
2022-12-03T19:39:14.661Z,100767.44
2022-12-03T19:41:43.621Z,100764.75
2022-12-03T19:44:12.988Z,100762.16
2022-12-03T19:46:40.433Z,100757.91
2022-12-03T19:49:07.921Z,100700.13
2022-12-03T19:51:36.020Z,100767.38
2022-12-03T19:54:03.796Z,100766.50
2022-12-03T19:56:32.547Z,100772.72
2022-12-03T19:59:00.117Z,100771.78
2022-12-03T20:01:29.463Z,100771.78
2022-12-03T20:03:57.831Z,100771.78
2022-12-03T20:06:26.556Z,100775.31
2022-12-03T20:08:56.360Z,100783.19
2022-12-03T20:11:24.733Z,100775.25
2022-12-03T20:13:54.687Z,100714.25
2022-12-03T20:16:22.249Z,100687.50
2022-12-03T20:18:50.027Z,100779.72
2022-12-03T20:21:20.304Z,100683.16
2022-12-03T20:23:47.900Z,100768.38
2022-12-03T20:26:17.121Z,100775.31
2022-12-03T20:28:44.675Z,100772.66
2022-12-03T20:31:14.579Z,100770.03
2022-12-03T20:33:43.183Z,100770.03
2022-12-03T20:36:11.122Z,100775.31
2022-12-03T20:38:38.555Z,100780.59
2022-12-03T20:41:07.049Z,100775.31
2022-12-03T20:43:34.689Z,100774.44
2022-12-03T20:46:07.241Z,100714.16
2022-12-03T20:48:36.070Z,100722.56
2022-12-03T20:51:04.539Z,100663.91
2022-12-03T20:53:31.991Z,100756.94
2022-12-03T20:55:59.629Z,100763.94
2022-12-03T20:58:27.421Z,100756.19
2022-12-03T21:00:54.930Z,100758.59
2022-12-03T21:03:22.401Z,100756.88
2022-12-03T21:05:51.176Z,100763.88
2022-12-03T21:08:39.288Z,100766.50
2022-12-03T21:11:08.784Z,100760.41
2022-12-03T21:13:36.049Z,100765.72
2022-12-03T21:16:04.817Z,100763.16
2022-12-03T21:18:32.263Z,100764.00
2022-12-03T21:21:01.517Z,100759.69
2022-12-03T21:23:29.076Z,100681.34
2022-12-03T21:26:03.748Z,100765.78
2022-12-03T21:28:31.236Z,100741.66
2022-12-03T21:31:01.499Z,100762.22
2022-12-03T21:33:29.452Z,100763.94
2022-12-03T21:35:57.242Z,100681.94
2022-12-03T21:38:26.053Z,100760.44
2022-12-03T21:40:53.516Z,100760.44
2022-12-03T21:43:21.027Z,100756.06
2022-12-03T21:45:48.543Z,100749.00
2022-12-03T21:48:16.188Z,100688.88
2022-12-03T21:50:43.723Z,100753.44
2022-12-03T21:53:11.204Z,100751.72
2022-12-03T21:55:41.225Z,100750.00
2022-12-03T21:58:08.710Z,100756.06
2022-12-03T22:00:36.274Z,100740.34
2022-12-03T22:03:03.861Z,100748.13
2022-12-03T22:05:31.369Z,100748.09
2022-12-03T22:07:58.866Z,100756.00
2022-12-03T22:10:26.375Z,100748.97
2022-12-03T22:12:55.230Z,100741.03
2022-12-03T22:15:22.681Z,100747.25
2022-12-03T22:17:50.144Z,100738.56
2022-12-03T22:20:17.615Z,100740.22
2022-12-03T22:22:45.108Z,100745.50
2022-12-03T22:25:12.561Z,100738.50
2022-12-03T22:27:40.011Z,100736.75
2022-12-03T22:30:09.736Z,100741.97
2022-12-03T22:32:37.182Z,100744.59
2022-12-03T22:35:04.990Z,100734.03
2022-12-03T22:37:33.384Z,100735.81
2022-12-03T22:40:00.800Z,100734.09
2022-12-03T22:42:28.243Z,100738.44
2022-12-03T22:44:55.689Z,100737.56
2022-12-03T22:47:24.458Z,100732.28
2022-12-03T22:49:52.497Z,100725.31
2022-12-03T22:52:20.107Z,100714.97
2022-12-03T22:54:47.571Z,100734.16
2022-12-03T22:57:15.639Z,100715.78
2022-12-03T22:59:43.106Z,100723.53
2022-12-03T23:02:10.563Z,100720.94
2022-12-03T23:04:39.381Z,100720.91
2022-12-03T23:07:08.025Z,100712.09
2022-12-03T23:09:35.480Z,100715.66
2022-12-03T23:12:02.915Z,100718.31
2022-12-03T23:14:30.400Z,100712.16
2022-12-03T23:16:57.861Z,100708.66
2022-12-03T23:19:25.324Z,100709.56
2022-12-03T23:21:54.109Z,100700.72
2022-12-03T23:24:21.631Z,100693.84
2022-12-03T23:26:49.073Z,100699.88
2022-12-03T23:29:16.524Z,100695.44
2022-12-03T23:31:44.034Z,100703.38
2022-12-03T23:34:11.618Z,100701.59
2022-12-03T23:36:39.055Z,100695.44
2022-12-03T23:39:07.813Z,100702.53
2022-12-03T23:41:36.013Z,100695.44
2022-12-03T23:44:03.458Z,100701.66
2022-12-03T23:46:31.002Z,100698.19
2022-12-03T23:48:59.318Z,100693.72
2022-12-03T23:51:26.824Z,100666.84
2022-12-03T23:53:55.241Z,100607.59
2022-12-03T23:56:27.771Z,100684.09
2022-12-03T23:58:55.187Z,100683.16
